Time;durP1;ratioP1;P1;durP2;ratioP2;P2;SDS_P1;SDS_P2;PMS_P1;PMS_P2;Temp;Humidity;BMP_temperature;BMP_pressure;BME280_temperature;BME280_humidity;BME280_pressure;Samples;Min_cycle;Max_cycle;Signal;HPM_P1;HPM_P2
2023/06/03 00:01:11;;;;;;;5.97;4.00;;;;;;;;;;5069535;28;20028;-74
2023/06/03 00:03:39;;;;;;;6.50;3.88;;;;;;;;;;5069457;28;20016;-74
2023/06/03 00:06:07;;;;;;;5.45;3.83;;;;;;;;;;5069313;28;20103;-74
2023/06/03 00:08:32;;;;;;;5.50;3.58;;;;;;;;;;5069362;28;20027;-74
2023/06/03 00:10:58;;;;;;;10.48;3.85;;;;;;;;;;5069371;28;20020;-74
2023/06/03 00:13:23;;;;;;;6.60;3.70;;;;;;;;;;5069159;28;20020;-74
2023/06/03 00:15:49;;;;;;;6.75;4.00;;;;;;;;;;5069040;28;20028;-74
2023/06/03 00:18:15;;;;;;;6.22;3.13;;;;;;;;;;5069421;28;20028;-74
2023/06/03 00:20:42;;;;;;;6.10;3.67;;;;;;;;;;5067735;28;20024;-74
2023/06/03 00:23:08;;;;;;;5.80;3.28;;;;;;;;;;5068971;28;20024;-74
2023/06/03 00:25:34;;;;;;;5.72;3.60;;;;;;;;;;5069289;28;20028;-74
2023/06/03 00:28:00;;;;;;;6.53;3.80;;;;;;;;;;5069219;28;20025;-74
2023/06/03 00:30:26;;;;;;;5.63;3.60;;;;;;;;;;5069067;28;20020;-74
2023/06/03 00:32:52;;;;;;;7.50;3.83;;;;;;;;;;5069152;28;20028;-74
2023/06/03 00:35:17;;;;;;;5.15;3.85;;;;;;;;;;5068788;28;20051;-74
2023/06/03 00:37:43;;;;;;;5.47;3.63;;;;;;;;;;5068627;28;20095;-74
2023/06/03 00:40:09;;;;;;;6.00;3.53;;;;;;;;;;5068757;28;20032;-74
2023/06/03 00:42:35;;;;;;;8.07;3.70;;;;;;;;;;5068971;28;20100;-74
2023/06/03 00:45:00;;;;;;;8.60;3.95;;;;;;;;;;5068862;28;20165;-74
2023/06/03 00:47:27;;;;;;;4.78;3.17;;;;;;;;;;5069070;28;20028;-74
2023/06/03 00:49:53;;;;;;;5.30;3.40;;;;;;;;;;5068859;28;20476;-74
2023/06/03 00:52:21;;;;;;;5.35;3.33;;;;;;;;;;5068394;28;20065;-74
2023/06/03 00:54:49;;;;;;;5.90;3.47;;;;;;;;;;5068678;28;20418;-74
2023/06/03 00:57:15;;;;;;;4.78;3.42;;;;;;;;;;5068774;28;20158;-74
2023/06/03 00:59:42;;;;;;;8.52;3.67;;;;;;;;;;5068653;28;20051;-74
2023/06/03 01:02:07;;;;;;;6.78;3.58;;;;;;;;;;5068888;28;20553;-74
2023/06/03 01:04:37;;;;;;;5.15;3.25;;;;;;;;;;5068591;28;20029;-74
2023/06/03 01:07:16;;;;;;;4.63;3.38;;;;;;;;;;5068093;28;20039;-74
2023/06/03 01:09:44;;;;;;;5.30;3.42;;;;;;;;;;5069024;28;20109;-74
2023/06/03 01:12:22;;;;;;;9.10;3.55;;;;;;;;;;5068454;28;20369;-74
2023/06/03 01:14:57;;;;;;;8.05;3.50;;;;;;;;;;5068637;28;20035;-74
2023/06/03 01:17:27;;;;;;;6.38;3.47;;;;;;;;;;5071175;28;20036;-74
2023/06/03 01:19:56;;;;;;;;;;;;;;;;;;5073254;28;20048;-74
2023/06/03 01:22:26;;;;;;;5.65;3.22;;;;;;;;;;5072461;28;19913;-74
2023/06/03 01:25:05;;;;;;;4.50;3.23;;;;;;;;;;5072958;28;20020;-74
2023/06/03 01:27:32;;;;;;;4.90;3.38;;;;;;;;;;5072724;28;20025;-74
2023/06/03 01:29:57;;;;;;;6.00;3.50;;;;;;;;;;5072543;28;20074;-74
2023/06/03 01:32:23;;;;;;;6.05;3.58;;;;;;;;;;5072239;28;20024;-74
2023/06/03 01:34:49;;;;;;;5.82;3.55;;;;;;;;;;5072339;28;20043;-74
2023/06/03 01:37:15;;;;;;;6.93;3.85;;;;;;;;;;5071648;28;20614;-74
2023/06/03 01:39:42;;;;;;;6.03;3.80;;;;;;;;;;5072552;28;20127;-74
2023/06/03 01:42:09;;;;;;;6.93;3.97;;;;;;;;;;5072281;28;20020;-74
2023/06/03 01:44:35;;;;;;;5.65;3.92;;;;;;;;;;5072211;28;20112;-74
2023/06/03 01:47:01;;;;;;;9.50;4.00;;;;;;;;;;5072084;28;20468;-74
2023/06/03 01:49:31;;;;;;;7.50;3.72;;;;;;;;;;5072087;28;20077;-74
2023/06/03 01:51:57;;;;;;;5.18;3.65;;;;;;;;;;5071544;28;20029;-74
2023/06/03 01:54:25;;;;;;;6.03;4.03;;;;;;;;;;5072099;28;20040;-74
2023/06/03 01:56:53;;;;;;;6.97;3.60;;;;;;;;;;5071848;28;20039;-74
2023/06/03 01:59:23;;;;;;;5.25;3.50;;;;;;;;;;5072137;28;20111;-74
2023/06/03 02:01:54;;;;;;;7.00;4.40;;;;;;;;;;5071887;28;20016;-74
2023/06/03 02:04:20;;;;;;;7.53;4.20;;;;;;;;;;5071967;28;20056;-74
2023/06/03 02:07:03;;;;;;;7.05;3.90;;;;;;;;;;5071819;28;20519;-74
2023/06/03 02:09:29;;;;;;;6.90;3.95;;;;;;;;;;5071811;28;20017;-74
2023/06/03 02:11:58;;;;;;;6.28;4.00;;;;;;;;;;5071372;28;20074;-74
2023/06/03 02:14:26;;;;;;;8.65;3.80;;;;;;;;;;5071645;28;20025;-74
2023/06/03 02:16:53;;;;;;;7.18;4.10;;;;;;;;;;5071676;28;20052;-74
2023/06/03 02:19:26;;;;;;;6.25;3.67;;;;;;;;;;5071821;28;20025;-74
2023/06/03 02:21:53;;;;;;;6.85;4.03;;;;;;;;;;5071108;28;20405;-74
2023/06/03 02:24:19;;;;;;;9.02;4.10;;;;;;;;;;5071320;28;20150;-76
2023/06/03 02:26:52;;;;;;;6.25;4.22;;;;;;;;;;5070596;28;20153;-74
2023/06/03 02:29:23;;;;;;;6.32;3.92;;;;;;;;;;5071327;28;20028;-74
2023/06/03 02:31:49;;;;;;;5.63;3.58;;;;;;;;;;5071237;28;20025;-76
2023/06/03 02:34:15;;;;;;;7.32;4.40;;;;;;;;;;5071435;28;20020;-74
2023/06/03 02:36:42;;;;;;;6.03;3.92;;;;;;;;;;5070780;28;20111;-74
2023/06/03 02:39:08;;;;;;;6.50;4.60;;;;;;;;;;5071296;28;20600;-74
2023/06/03 02:41:34;;;;;;;7.45;4.70;;;;;;;;;;5071028;28;20596;-74
2023/06/03 02:43:59;;;;;;;6.47;4.40;;;;;;;;;;5070973;28;20170;-74
2023/06/03 02:46:25;;;;;;;7.95;4.78;;;;;;;;;;5070929;28;20032;-74
2023/06/03 02:48:50;;;;;;;7.82;4.60;;;;;;;;;;5071080;28;20017;-77
2023/06/03 02:51:15;;;;;;;7.40;4.35;;;;;;;;;;5069664;28;20060;-74
2023/06/03 02:53:41;;;;;;;9.45;4.75;;;;;;;;;;5070712;28;20688;-74
2023/06/03 02:56:06;;;;;;;7.00;4.68;;;;;;;;;;5070927;28;20651;-74
2023/06/03 02:58:32;;;;;;;6.32;4.60;;;;;;;;;;5070976;28;20036;-74
2023/06/03 03:00:57;;;;;;;7.50;4.55;;;;;;;;;;5070914;28;20551;-74
2023/06/03 03:03:24;;;;;;;8.98;4.93;;;;;;;;;;5070496;28;20024;-74
2023/06/03 03:05:51;;;;;;;11.10;4.57;;;;;;;;;;5070684;28;20035;-74
2023/06/03 03:08:17;;;;;;;6.30;4.38;;;;;;;;;;5070000;28;20116;-74
2023/06/03 03:10:42;;;;;;;7.00;4.63;;;;;;;;;;5070815;28;20108;-74
2023/06/03 03:13:08;;;;;;;8.57;5.20;;;;;;;;;;5070537;28;20029;-74
2023/06/03 03:15:33;;;;;;;8.10;5.05;;;;;;;;;;5070537;28;20065;-74
2023/06/03 03:17:58;;;;;;;10.10;5.22;;;;;;;;;;5070521;28;20150;-74
2023/06/03 03:20:24;;;;;;;10.40;5.13;;;;;;;;;;5070477;28;20029;-74
2023/06/03 03:22:50;;;;;;;7.68;5.03;;;;;;;;;;5069831;28;20057;-74
2023/06/03 03:25:15;;;;;;;8.25;5.53;;;;;;;;;;5070170;28;20024;-74
2023/06/03 03:27:41;;;;;;;9.30;5.57;;;;;;;;;;5070232;28;20037;-74
2023/06/03 03:30:08;;;;;;;10.70;5.82;;;;;;;;;;5070439;28;20451;-74
2023/06/03 03:32:35;;;;;;;10.63;5.30;;;;;;;;;;5069867;28;20249;-74
2023/06/03 03:35:12;;;;;;;7.22;4.95;;;;;;;;;;5069990;28;20028;-74
2023/06/03 03:37:37;;;;;;;11.98;5.75;;;;;;;;;;5069407;28;20025;-74
2023/06/03 03:40:05;;;;;;;7.60;5.47;;;;;;;;;;5069388;28;20617;-74
2023/06/03 03:42:31;;;;;;;7.38;5.47;;;;;;;;;;5069757;28;20673;-74
2023/06/03 03:44:59;;;;;;;8.70;5.40;;;;;;;;;;5069759;28;20484;-76
2023/06/03 03:47:25;;;;;;;9.85;5.90;;;;;;;;;;5069760;28;20036;-74
2023/06/03 03:49:50;;;;;;;8.73;5.60;;;;;;;;;;5069781;28;20032;-74
2023/06/03 03:52:27;;;;;;;11.25;5.95;;;;;;;;;;5069176;28;20036;-74
2023/06/03 03:54:52;;;;;;;10.13;5.78;;;;;;;;;;5069882;28;20028;-74
2023/06/03 03:57:21;;;;;;;9.80;6.00;;;;;;;;;;5069680;28;20028;-74
2023/06/03 03:59:46;;;;;;;11.35;6.00;;;;;;;;;;5069582;28;20024;-74
2023/06/03 04:02:12;;;;;;;10.38;5.93;;;;;;;;;;5069139;28;20039;-74
2023/06/03 04:04:44;;;;;;;10.15;6.00;;;;;;;;;;5069234;28;20020;-74
2023/06/03 04:07:14;;;;;;;9.25;6.10;;;;;;;;;;5068931;28;20097;-74
2023/06/03 04:09:44;;;;;;;8.85;5.93;;;;;;;;;;5069647;28;20023;-76
2023/06/03 04:12:29;;;;;;;10.43;6.40;;;;;;;;;;5069266;28;20025;-74
2023/06/03 04:14:57;;;;;;;11.32;6.32;;;;;;;;;;5069069;28;20031;-74
2023/06/03 04:17:25;;;;;;;10.20;6.65;;;;;;;;;;5068974;28;20032;-74
2023/06/03 04:19:51;;;;;;;10.20;6.20;;;;;;;;;;5069205;28;20033;-74
2023/06/03 04:22:21;;;;;;;10.57;6.95;;;;;;;;;;5068510;28;20119;-77
2023/06/03 04:24:52;;;;;;;;;;;;;;;;;;5069595;28;20488;-74
2023/06/03 04:27:17;;;;;;;10.32;6.90;;;;;;;;;;5069184;28;19912;-76
2023/06/03 04:29:43;;;;;;;14.80;6.82;;;;;;;;;;5069279;28;20067;-74
2023/06/03 04:32:08;;;;;;;10.38;7.10;;;;;;;;;;5069055;28;20055;-74
2023/06/03 04:34:34;;;;;;;10.85;6.30;;;;;;;;;;5068583;28;20029;-74
2023/06/03 04:36:59;;;;;;;12.52;6.88;;;;;;;;;;5068369;28;20505;-74
2023/06/03 04:39:25;;;;;;;11.50;7.18;;;;;;;;;;5068490;28;20170;-74
2023/06/03 04:41:50;;;;;;;10.35;6.95;;;;;;;;;;5068882;28;20025;-74
2023/06/03 04:44:15;;;;;;;12.23;7.40;;;;;;;;;;5068435;28;20074;-74
2023/06/03 04:46:45;;;;;;;13.13;7.28;;;;;;;;;;5069099;28;20032;-74
2023/06/03 04:49:11;;;;;;;12.65;7.47;;;;;;;;;;5068802;28;20040;-77
2023/06/03 04:51:40;;;;;;;10.68;7.10;;;;;;;;;;5066624;28;20089;-76
2023/06/03 04:54:06;;;;;;;12.77;7.15;;;;;;;;;;5068605;28;20036;-76
2023/06/03 04:56:31;;;;;;;13.40;7.65;;;;;;;;;;5068497;28;20040;-76
2023/06/03 04:59:00;;;;;;;13.43;8.00;;;;;;;;;;5068552;28;20025;-76
2023/06/03 05:01:27;;;;;;;13.23;7.82;;;;;;;;;;5067490;28;20591;-76
2023/06/03 05:03:53;;;;;;;12.75;8.35;;;;;;;;;;5068669;28;20020;-76
2023/06/03 05:06:19;;;;;;;14.18;7.85;;;;;;;;;;5068277;28;20024;-76
2023/06/03 05:08:48;;;;;;;12.70;8.27;;;;;;;;;;5068536;28;20028;-76
2023/06/03 05:11:15;;;;;;;15.30;8.90;;;;;;;;;;5068550;28;20597;-76
2023/06/03 05:13:41;;;;;;;13.25;8.23;;;;;;;;;;5068351;28;20631;-76
2023/06/03 05:16:06;;;;;;;14.05;7.88;;;;;;;;;;5068402;28;20060;-77
2023/06/03 05:18:32;;;;;;;12.10;7.80;;;;;;;;;;5068462;28;20100;-76
2023/06/03 05:20:57;;;;;;;12.10;8.25;;;;;;;;;;5068636;28;20046;-76
2023/06/03 05:23:23;;;;;;;12.77;8.45;;;;;;;;;;5068222;28;20439;-76
2023/06/03 05:25:48;;;;;;;12.13;8.23;;;;;;;;;;5068408;28;20036;-77
2023/06/03 05:28:14;;;;;;;13.07;8.38;;;;;;;;;;5068375;28;20021;-76
2023/06/03 05:30:39;;;;;;;13.07;8.13;;;;;;;;;;5068706;28;20119;-76
2023/06/03 05:33:04;;;;;;;14.93;8.65;;;;;;;;;;5068181;28;20431;-76
2023/06/03 05:35:30;;;;;;;12.32;8.25;;;;;;;;;;5068329;28;20025;-76
2023/06/03 05:37:55;;;;;;;11.70;7.47;;;;;;;;;;5067832;28;20036;-75
2023/06/03 05:40:20;;;;;;;12.90;7.82;;;;;;;;;;5068468;28;20021;-76
2023/06/03 05:42:47;;;;;;;11.02;7.50;;;;;;;;;;5068477;28;20579;-75
2023/06/03 05:45:13;;;;;;;13.52;7.90;;;;;;;;;;5068154;28;20603;-75
2023/06/03 05:47:39;;;;;;;12.57;7.72;;;;;;;;;;5068413;28;20028;-76
2023/06/03 05:50:06;;;;;;;11.35;6.95;;;;;;;;;;5068070;28;20052;-76
2023/06/03 05:52:31;;;;;;;10.75;7.32;;;;;;;;;;5067803;28;20108;-75
2023/06/03 05:54:57;;;;;;;14.18;7.78;;;;;;;;;;5067812;28;20139;-75
2023/06/03 05:57:23;;;;;;;11.48;7.03;;;;;;;;;;5068419;28;20020;-75
2023/06/03 05:59:50;;;;;;;11.88;7.90;;;;;;;;;;5066829;28;20024;-76
2023/06/03 06:02:20;;;;;;;10.82;7.25;;;;;;;;;;5069856;28;20028;-76
2023/06/03 06:04:45;;;;;;;10.50;7.32;;;;;;;;;;5071750;28;20020;-75
2023/06/03 06:07:11;;;;;;;13.43;6.82;;;;;;;;;;5071371;28;20112;-76
2023/06/03 06:09:36;;;;;;;10.88;6.88;;;;;;;;;;5071367;28;20027;-76
2023/06/03 06:12:02;;;;;;;11.18;6.95;;;;;;;;;;5071608;28;20099;-75
2023/06/03 06:14:27;;;;;;;10.38;6.80;;;;;;;;;;5071655;28;20435;-75
2023/06/03 06:16:53;;;;;;;9.65;6.95;;;;;;;;;;5071792;28;20020;-76
2023/06/03 06:19:18;;;;;;;12.23;6.95;;;;;;;;;;5067866;28;20009;-75
2023/06/03 06:21:46;;;;;;;9.85;6.78;;;;;;;;;;5051422;28;20024;-75
2023/06/03 06:24:12;;;;;;;13.68;7.28;;;;;;;;;;5051299;28;20492;-76
2023/06/03 06:26:39;;;;;;;10.85;7.13;;;;;;;;;;5051347;28;20021;-76
2023/06/03 06:29:04;;;;;;;11.82;7.28;;;;;;;;;;5051142;28;20104;-75
2023/06/03 06:31:30;;;;;;;11.27;7.10;;;;;;;;;;5051443;28;20108;-75
2023/06/03 06:33:57;;;;;;;10.48;7.00;;;;;;;;;;5051238;28;20017;-75
2023/06/03 06:36:26;;;;;;;11.13;7.25;;;;;;;;;;5050686;28;20021;-76
2023/06/03 06:38:53;;;;;;;11.05;6.88;;;;;;;;;;5051038;28;20497;-75
2023/06/03 06:41:18;;;;;;;12.88;7.13;;;;;;;;;;5051395;28;20386;-76
2023/06/03 06:43:44;;;;;;;9.07;6.22;;;;;;;;;;5051302;28;20532;-75
2023/06/03 06:46:10;;;;;;;7.90;5.90;;;;;;;;;;5050865;28;20033;-75
2023/06/03 06:48:37;;;;;;;10.95;6.72;;;;;;;;;;5051130;28;20542;-76
2023/06/03 06:51:03;;;;;;;9.82;6.35;;;;;;;;;;5051030;28;20029;-76
2023/06/03 06:53:28;;;;;;;11.93;6.32;;;;;;;;;;5050732;28;20040;-76
2023/06/03 06:56:01;;;;;;;12.25;7.07;;;;;;;;;;5050566;28;20025;-75
2023/06/03 06:58:32;;;;;;;10.98;7.20;;;;;;;;;;5051269;28;20116;-75
2023/06/03 07:01:00;;;;;;;12.50;6.97;;;;;;;;;;5050731;28;20029;-76
2023/06/03 07:03:26;;;;;;;12.05;7.60;;;;;;;;;;5050921;28;20071;-76
2023/06/03 07:05:53;;;;;;;11.20;7.22;;;;;;;;;;5050168;28;20037;-75
2023/06/03 07:08:21;;;;;;;10.38;6.95;;;;;;;;;;5050270;28;20109;-76
2023/06/03 07:10:47;;;;;;;12.93;7.57;;;;;;;;;;5050596;28;20017;-75
2023/06/03 07:13:17;;;;;;;11.60;6.60;;;;;;;;;;5049767;28;20099;-75
2023/06/03 07:15:43;;;;;;;12.88;7.00;;;;;;;;;;5050371;28;20396;-75
2023/06/03 07:18:10;;;;;;;12.85;7.05;;;;;;;;;;5050675;28;20056;-75
2023/06/03 07:20:42;;;;;;;12.20;6.40;;;;;;;;;;5050396;28;20036;-75
2023/06/03 07:23:28;;;;;;;10.50;6.70;;;;;;;;;;5049995;28;20035;-76
2023/06/03 07:25:55;;;;;;;10.07;6.53;;;;;;;;;;5049764;28;20037;-75
2023/06/03 07:28:32;;;;;;;10.02;6.30;;;;;;;;;;5050404;28;20362;-75
2023/06/03 07:31:00;;;;;;;12.88;6.28;;;;;;;;;;5065703;28;20439;-75
2023/06/03 07:33:29;;;;;;;11.10;6.70;;;;;;;;;;5050311;28;20461;-75
2023/06/03 07:36:01;;;;;;;11.88;6.50;;;;;;;;;;5049871;28;20021;-76
2023/06/03 07:38:38;;;;;;;11.60;6.80;;;;;;;;;;5049719;28;20056;-75
2023/06/03 07:41:08;;;;;;;7.97;5.72;;;;;;;;;;5049887;28;20493;-75
2023/06/03 07:43:36;;;;;;;10.70;6.93;;;;;;;;;;5049976;28;20576;-75
2023/06/03 07:46:05;;;;;;;8.75;5.82;;;;;;;;;;5049674;28;20040;-75
2023/06/03 07:48:32;;;;;;;8.85;5.60;;;;;;;;;;5050010;28;20027;-75
2023/06/03 07:50:58;;;;;;;12.00;6.10;;;;;;;;;;5049861;28;20111;-75
2023/06/03 07:53:23;;;;;;;10.18;5.45;;;;;;;;;;5049738;28;20029;-76
2023/06/03 07:55:50;;;;;;;9.75;5.95;;;;;;;;;;5049452;28;20938;-76
2023/06/03 07:58:16;;;;;;;8.63;5.82;;;;;;;;;;5050119;28;20377;-76
2023/06/03 08:00:54;;;;;;;10.02;5.65;;;;;;;;;;5064887;28;20021;-75
2023/06/03 08:03:22;;;;;;;7.80;5.60;;;;;;;;;;5049551;28;20052;-75
2023/06/03 08:05:49;;;;;;;8.13;5.60;;;;;;;;;;5049363;28;20534;-75
2023/06/03 08:08:17;;;;;;;9.93;5.53;;;;;;;;;;5049218;28;20043;-76
2023/06/03 08:10:45;;;;;;;8.40;5.38;;;;;;;;;;5049672;28;20420;-76
2023/06/03 08:13:12;;;;;;;8.70;5.47;;;;;;;;;;5049480;28;20048;-75
2023/06/03 08:15:39;;;;;;;7.90;5.47;;;;;;;;;;5049282;28;20025;-76
2023/06/03 08:18:08;;;;;;;7.47;5.15;;;;;;;;;;5064572;28;20028;-76
2023/06/03 08:20:35;;;;;;;9.27;5.53;;;;;;;;;;5048949;28;20060;-76
2023/06/03 08:23:02;;;;;;;8.82;5.47;;;;;;;;;;5048978;28;20029;-76
2023/06/03 08:25:28;;;;;;;7.65;4.97;;;;;;;;;;5049116;28;20056;-76
2023/06/03 08:27:53;;;;;;;8.02;5.35;;;;;;;;;;5049098;28;20052;-76
2023/06/03 08:30:22;;;;;;;9.23;5.15;;;;;;;;;;5049177;28;20024;-76
2023/06/03 08:32:49;;;;;;;9.63;5.13;;;;;;;;;;5049244;28;20035;-75
2023/06/03 08:35:17;;;;;;;7.65;5.32;;;;;;;;;;5064228;28;20070;-75
2023/06/03 08:37:43;;;;;;;7.43;4.90;;;;;;;;;;5048329;28;20036;-76
2023/06/03 08:40:10;;;;;;;7.03;4.85;;;;;;;;;;5048709;28;20048;-76
2023/06/03 08:42:43;;;;;;;7.90;4.65;;;;;;;;;;5049235;28;20056;-75
2023/06/03 08:45:15;;;;;;;9.35;4.82;;;;;;;;;;5048960;28;20076;-76
2023/06/03 08:48:02;;;;;;;7.95;4.18;;;;;;;;;;5048932;28;20503;-76
2023/06/03 08:50:28;;;;;;;6.72;3.90;;;;;;;;;;5048796;28;20108;-76
2023/06/03 08:52:55;;;;;;;6.78;4.10;;;;;;;;;;5048667;28;20113;-75
2023/06/03 08:55:21;;;;;;;5.70;3.90;;;;;;;;;;5048597;28;20025;-75
2023/06/03 08:57:55;;;;;;;6.25;3.55;;;;;;;;;;5048662;28;20489;-75
2023/06/03 09:00:24;;;;;;;7.57;3.70;;;;;;;;;;5048672;28;20598;-76
2023/06/03 09:02:50;;;;;;;5.53;3.70;;;;;;;;;;5048802;28;20398;-76
2023/06/03 09:05:16;;;;;;;6.35;4.00;;;;;;;;;;5048747;28;20052;-76
2023/06/03 09:07:43;;;;;;;8.10;3.72;;;;;;;;;;5048417;28;20067;-76
2023/06/03 09:10:10;;;;;;;5.97;3.72;;;;;;;;;;5048614;28;20029;-76
2023/06/03 09:12:37;;;;;;;6.00;3.60;;;;;;;;;;5048920;28;20648;-76
2023/06/03 09:15:04;;;;;;;6.00;3.50;;;;;;;;;;5048579;28;20029;-76
2023/06/03 09:17:30;;;;;;;6.13;3.22;;;;;;;;;;5048222;28;20620;-76
2023/06/03 09:20:00;;;;;;;7.97;3.70;;;;;;;;;;5048886;28;20563;-76
2023/06/03 09:22:27;;;;;;;5.40;3.20;;;;;;;;;;5048244;28;20497;-76
2023/06/03 09:24:52;;;;;;;4.97;3.20;;;;;;;;;;5048662;28;20021;-75
2023/06/03 09:27:21;;;;;;;5.45;3.63;;;;;;;;;;5063508;28;20040;-76
2023/06/03 09:29:46;;;;;;;4.97;3.45;;;;;;;;;;5048502;28;20435;-76
2023/06/03 09:32:11;;;;;;;4.90;3.25;;;;;;;;;;5048077;28;20534;-77
2023/06/03 09:34:37;;;;;;;6.53;3.70;;;;;;;;;;5048460;28;20053;-75
2023/06/03 09:37:08;;;;;;;6.70;3.35;;;;;;;;;;5049038;28;20079;-76
2023/06/03 09:39:35;;;;;;;6.07;3.65;;;;;;;;;;5067709;28;20055;-75
2023/06/03 09:42:00;;;;;;;5.03;3.08;;;;;;;;;;5051985;28;20033;-76
2023/06/03 09:44:49;;;;;;;5.63;3.00;;;;;;;;;;5052487;28;20098;-76
2023/06/03 09:47:15;;;;;;;4.95;3.15;;;;;;;;;;5051814;28;20040;-76
2023/06/03 09:50:00;;;;;;;4.75;3.40;;;;;;;;;;5050962;28;20688;-76
2023/06/03 09:52:33;;;;;;;5.68;3.00;;;;;;;;;;5051495;28;20024;-76
2023/06/03 09:55:09;;;;;;;4.97;3.40;;;;;;;;;;5052299;28;20166;-76
2023/06/03 09:57:36;;;;;;;5.57;2.85;;;;;;;;;;5051757;28;20072;-75
2023/06/03 10:00:15;;;;;;;4.68;3.17;;;;;;;;;;5052349;28;20036;-76
2023/06/03 10:02:44;;;;;;;8.10;3.50;;;;;;;;;;5051742;28;20535;-76
2023/06/03 10:05:28;;;;;;;6.22;3.67;;;;;;;;;;5051849;28;20040;-75
2023/06/03 10:07:55;;;;;;;6.45;3.38;;;;;;;;;;5051190;28;20069;-76
2023/06/03 10:10:20;;;;;;;4.38;3.13;;;;;;;;;;5051769;28;20025;-76
2023/06/03 10:12:48;;;;;;;5.40;2.95;;;;;;;;;;5051555;28;20036;-76
2023/06/03 10:15:32;;;;;;;4.50;2.80;;;;;;;;;;5051874;28;20017;-76
2023/06/03 10:17:57;;;;;;;7.38;3.10;;;;;;;;;;5051385;28;20378;-76
2023/06/03 10:20:36;;;;;;;7.00;3.20;;;;;;;;;;5051897;28;20036;-76
2023/06/03 10:23:03;;;;;;;6.20;2.92;;;;;;;;;;5051142;28;20481;-76
2023/06/03 10:25:52;;;;;;;5.45;2.70;;;;;;;;;;5051564;28;20043;-76
2023/06/03 10:28:19;;;;;;;4.15;2.95;;;;;;;;;;5051009;28;20032;-76
2023/06/03 10:30:44;;;;;;;5.35;2.75;;;;;;;;;;5051531;28;20480;-76
2023/06/03 10:33:10;;;;;;;5.78;2.95;;;;;;;;;;5051187;28;20104;-76
2023/06/03 10:35:37;;;;;;;5.15;3.08;;;;;;;;;;5051499;28;20036;-76
2023/06/03 10:38:07;;;;;;;5.22;3.22;;;;;;;;;;5050398;28;20029;-76
2023/06/03 10:40:33;;;;;;;4.38;2.95;;;;;;;;;;5051486;28;20040;-76
2023/06/03 10:42:59;;;;;;;6.18;3.17;;;;;;;;;;5051156;28;20504;-76
2023/06/03 10:45:27;;;;;;;4.20;2.78;;;;;;;;;;5051174;28;20064;-75
2023/06/03 10:48:00;;;;;;;5.25;3.15;;;;;;;;;;5050106;28;20087;-75
2023/06/03 10:50:44;;;;;;;4.03;3.05;;;;;;;;;;5050814;28;20025;-75
2023/06/03 10:53:13;;;;;;;3.60;2.90;;;;;;;;;;5050494;28;20111;-75
2023/06/03 10:56:08;;;;;;;5.80;3.00;;;;;;;;;;5051211;28;20024;-76
2023/06/03 10:58:34;;;;;;;3.75;2.92;;;;;;;;;;5050763;28;20025;-76
2023/06/03 11:01:06;;;;;;;5.82;3.08;;;;;;;;;;5050988;28;20078;-76
2023/06/03 11:03:59;;;;;;;4.38;3.15;;;;;;;;;;5066071;28;20032;-76
2023/06/03 11:06:28;;;;;;;5.65;3.40;;;;;;;;;;5050408;28;20040;-76
2023/06/03 11:09:07;;;;;;;5.93;3.25;;;;;;;;;;5050284;28;20086;-76
2023/06/03 11:11:39;;;;;;;7.20;3.03;;;;;;;;;;5050644;28;20035;-76
2023/06/03 11:14:05;;;;;;;4.63;2.97;;;;;;;;;;5050536;28;20032;-76
2023/06/03 11:16:50;;;;;;;4.68;2.88;;;;;;;;;;5050465;28;20036;-76
2023/06/03 11:19:31;;;;;;;5.07;3.03;;;;;;;;;;5065605;28;20056;-76
2023/06/03 11:21:57;;;;;;;5.20;3.00;;;;;;;;;;5049881;28;20607;-77
2023/06/03 11:24:38;;;;;;;3.72;2.72;;;;;;;;;;5050490;28;20036;-76
2023/06/03 11:27:12;;;;;;;6.15;2.80;;;;;;;;;;5050129;28;20159;-76
2023/06/03 11:29:47;;;;;;;6.00;2.70;;;;;;;;;;5050301;28;20021;-76
2023/06/03 11:32:13;;;;;;;4.18;2.90;;;;;;;;;;5065385;28;20029;-77
2023/06/03 11:34:38;;;;;;;4.90;2.97;;;;;;;;;;5050412;28;20040;-76
2023/06/03 11:37:04;;;;;;;4.78;2.83;;;;;;;;;;5049692;28;20036;-76
2023/06/03 11:40:00;;;;;;;5.00;2.85;;;;;;;;;;5049738;28;20041;-76
2023/06/03 11:42:25;;;;;;;5.10;2.97;;;;;;;;;;5049806;28;20036;-76
2023/06/03 11:44:51;;;;;;;3.47;2.50;;;;;;;;;;5049924;28;20024;-76
2023/06/03 11:47:16;;;;;;;6.30;2.88;;;;;;;;;;5049990;28;20025;-76
2023/06/03 11:49:41;;;;;;;3.97;2.55;;;;;;;;;;5049880;28;20029;-76
2023/06/03 11:52:08;;;;;;;5.45;2.83;;;;;;;;;;5049750;28;20025;-76
2023/06/03 11:54:38;;;;;;;7.03;2.85;;;;;;;;;;5050125;28;20025;-76
2023/06/03 11:57:05;;;;;;;4.55;2.90;;;;;;;;;;5049748;28;20727;-76
2023/06/03 11:59:41;;;;;;;5.63;2.63;;;;;;;;;;5049132;28;20021;-76
2023/06/03 12:02:07;;;;;;;4.13;2.67;;;;;;;;;;5049644;28;20100;-76
2023/06/03 12:04:34;;;;;;;4.13;2.60;;;;;;;;;;5049687;28;20191;-76
2023/06/03 12:07:00;;;;;;;5.25;2.90;;;;;;;;;;5049234;28;20020;-75
2023/06/03 12:09:27;;;;;;;5.55;2.45;;;;;;;;;;5049373;28;20154;-76
2023/06/03 12:11:56;;;;;;;5.80;2.70;;;;;;;;;;5049608;28;20025;-77
2023/06/03 12:14:29;;;;;;;5.45;2.50;;;;;;;;;;5064761;28;20025;-76
2023/06/03 12:16:57;;;;;;;3.92;2.75;;;;;;;;;;5049477;28;20033;-76
2023/06/03 12:19:23;;;;;;;4.55;2.58;;;;;;;;;;5048927;28;20418;-76
2023/06/03 12:21:57;;;;;;;7.32;2.88;;;;;;;;;;5048912;28;20515;-76
2023/06/03 12:24:29;;;;;;;3.92;2.70;;;;;;;;;;5049094;28;20029;-76
2023/06/03 12:26:56;;;;;;;5.22;2.75;;;;;;;;;;5049482;28;20075;-76
2023/06/03 12:29:23;;;;;;;7.32;2.80;;;;;;;;;;5049012;28;20056;-76
2023/06/03 12:31:56;;;;;;;4.28;2.50;;;;;;;;;;5049353;28;20059;-76
2023/06/03 12:34:35;;;;;;;3.30;2.42;;;;;;;;;;5049004;28;20044;-76
2023/06/03 12:37:04;;;;;;;4.78;2.83;;;;;;;;;;5048515;28;20410;-76
2023/06/03 12:39:44;;;;;;;4.20;2.97;;;;;;;;;;5048363;28;20064;-76
2023/06/03 12:42:11;;;;;;;3.85;2.80;;;;;;;;;;5064361;28;20025;-76
2023/06/03 12:44:43;;;;;;;4.13;2.63;;;;;;;;;;5048919;28;20568;-76
2023/06/03 12:47:09;;;;;;;5.57;2.80;;;;;;;;;;5081262;28;20802;-76
2023/06/03 12:49:34;;;;;;;3.90;2.70;;;;;;;;;;5048685;28;20549;-76
2023/06/03 12:52:19;;;;;;;6.55;2.70;;;;;;;;;;5048574;28;20028;-76
2023/06/03 12:54:52;;;;;;;5.15;3.00;;;;;;;;;;5048707;28;20032;-76
2023/06/03 12:57:18;;;;;;;5.82;3.00;;;;;;;;;;5048773;28;20626;-76
2023/06/03 13:00:20;;;;;;;4.50;2.70;;;;;;;;;;5048486;28;20056;-76
2023/06/03 13:02:49;;;;;;;5.03;2.90;;;;;;;;;;5036863;28;20037;-76
2023/06/03 13:05:16;;;;;;;5.23;2.83;;;;;;;;;;5048598;28;20039;-76
2023/06/03 13:07:43;;;;;;;4.07;3.05;;;;;;;;;;5048525;28;20037;-76
2023/06/03 13:10:13;;;;;;;4.47;3.13;;;;;;;;;;5048203;28;20033;-76
2023/06/03 13:12:40;;;;;;;4.30;2.58;;;;;;;;;;5048091;28;20032;-76
2023/06/03 13:15:05;;;;;;;3.28;2.60;;;;;;;;;;5048348;28;20025;-76
2023/06/03 13:17:33;;;;;;;4.53;2.90;;;;;;;;;;5048599;28;20437;-76
2023/06/03 13:19:59;;;;;;;4.45;3.03;;;;;;;;;;5048309;28;20477;-76
2023/06/03 13:22:26;;;;;;;4.13;3.00;;;;;;;;;;5048332;28;20040;-76
2023/06/03 13:24:52;;;;;;;4.35;2.70;;;;;;;;;;5048280;28;20075;-76
2023/06/03 13:27:21;;;;;;;4.32;2.58;;;;;;;;;;5048504;28;20048;-76
2023/06/03 13:29:47;;;;;;;4.05;2.70;;;;;;;;;;5047969;28;20556;-76
2023/06/03 13:32:14;;;;;;;5.22;2.63;;;;;;;;;;5048551;28;20033;-76
2023/06/03 13:34:39;;;;;;;4.78;2.70;;;;;;;;;;5048221;28;20040;-76
2023/06/03 13:37:05;;;;;;;6.20;2.90;;;;;;;;;;5047943;28;20036;-76
2023/06/03 13:39:32;;;;;;;4.47;2.80;;;;;;;;;;5047887;28;20783;-76
2023/06/03 13:41:58;;;;;;;4.75;2.83;;;;;;;;;;5048500;28;20017;-76
2023/06/03 13:44:24;;;;;;;7.22;3.08;;;;;;;;;;5048279;28;20032;-76
2023/06/03 13:46:51;;;;;;;5.45;2.97;;;;;;;;;;5048364;28;20436;-76
2023/06/03 13:49:16;;;;;;;5.07;3.08;;;;;;;;;;5047857;28;20024;-76
2023/06/03 13:51:42;;;;;;;4.28;2.80;;;;;;;;;;5047956;28;20029;-76
2023/06/03 13:54:07;;;;;;;4.15;2.83;;;;;;;;;;5047884;28;20025;-76
2023/06/03 13:56:33;;;;;;;5.05;2.92;;;;;;;;;;5048208;28;20036;-76
2023/06/03 13:58:58;;;;;;;3.90;2.90;;;;;;;;;;5048049;28;20104;-76
2023/06/03 14:01:27;;;;;;;4.07;2.85;;;;;;;;;;5047091;28;20032;-76
2023/06/03 14:03:52;;;;;;;5.68;3.40;;;;;;;;;;5048113;28;20024;-76
2023/06/03 14:06:18;;;;;;;7.57;3.30;;;;;;;;;;5047784;28;20029;-76
2023/06/03 14:08:44;;;;;;;5.22;3.22;;;;;;;;;;5047898;28;20035;-76
2023/06/03 14:11:09;;;;;;;6.85;3.40;;;;;;;;;;5047930;28;20142;-75
2023/06/03 14:13:35;;;;;;;6.22;3.50;;;;;;;;;;5047980;28;20083;-76
2023/06/03 14:16:02;;;;;;;5.85;3.42;;;;;;;;;;5048073;28;20041;-76
2023/06/03 14:18:27;;;;;;;6.78;3.33;;;;;;;;;;5048243;28;20036;-76
2023/06/03 14:20:52;;;;;;;6.13;3.38;;;;;;;;;;5047897;28;20033;-76
2023/06/03 14:23:18;;;;;;;7.50;3.55;;;;;;;;;;5049329;28;20025;-76
2023/06/03 14:25:43;;;;;;;6.43;3.83;;;;;;;;;;5051576;28;20025;-76
2023/06/03 14:28:09;;;;;;;5.97;3.58;;;;;;;;;;5051887;28;20021;-76
2023/06/03 14:30:35;;;;;;;4.57;3.20;;;;;;;;;;5051212;28;20627;-76
2023/06/03 14:33:00;;;;;;;5.65;3.28;;;;;;;;;;5051532;28;20029;-76
2023/06/03 14:35:26;;;;;;;6.03;3.03;;;;;;;;;;5051206;28;20029;-76
2023/06/03 14:37:51;;;;;;;6.93;3.40;;;;;;;;;;5050863;28;20128;-76
2023/06/03 14:40:17;;;;;;;5.88;3.20;;;;;;;;;;5050989;28;20036;-76
2023/06/03 14:42:42;;;;;;;4.20;3.00;;;;;;;;;;5051522;28;20017;-76
2023/06/03 14:45:08;;;;;;;5.75;3.13;;;;;;;;;;5050848;28;20025;-76
2023/06/03 14:47:34;;;;;;;5.10;3.50;;;;;;;;;;5051149;28;20472;-76